Terminal Aerodrome Forecast
Issued by NWS

Home | Current Version | Previous Version | Graphics & Text | Print | Product List | Glossary On
Versions: 1 2 3 4 5 6 7 8 9 10 11 12
325
FTUS43 KIWX 191120
TAFSBN
TAF
KSBN 191120Z 1912/2012 29012KT P6SM OVC035
     FM192000 28013KT P6SM BKN035
     FM200000 25008KT P6SM SCT100=

USA.gov is the U.S. government's official web portal to all federal, state and local government web resources and services.